Time;durP1;ratioP1;P1;durP2;ratioP2;P2;SDS_P1;SDS_P2;PMS_P1;PMS_P2;Temp;Humidity;BMP_temperature;BMP_pressure;BME280_temperature;BME280_humidity;BME280_pressure;Samples;Min_cycle;Max_cycle;Signal;HPM_P1;HPM_P2
2023/04/16 00:01:55;;;;;;;16.63;5.40;;;11.90;72.30;;;;;;5030836;28;20033;-62
2023/04/16 00:04:21;;;;;;;13.73;4.53;;;11.90;72.40;;;;;;5031343;28;20022;-61
2023/04/16 00:06:46;;;;;;;15.30;5.13;;;11.90;72.50;;;;;;5034428;28;20443;-62
2023/04/16 00:09:12;;;;;;;13.10;5.35;;;11.90;72.60;;;;;;5034355;28;20116;-62
2023/04/16 00:11:38;;;;;;;12.80;5.10;;;11.90;72.70;;;;;;5031440;28;20034;-61
2023/04/16 00:14:04;;;;;;;12.25;5.25;;;11.90;72.70;;;;;;5033950;28;20052;-61
2023/04/16 00:16:29;;;;;;;13.88;4.97;;;11.90;72.80;;;;;;5035803;28;20303;-61
2023/04/16 00:18:55;;;;;;;13.00;5.38;;;11.90;72.90;;;;;;5035886;28;20075;-61
2023/04/16 00:21:21;;;;;;;11.73;4.75;;;11.90;73.00;;;;;;5034176;28;20044;-61
2023/04/16 00:23:46;;;;;;;10.73;5.22;;;11.90;73.10;;;;;;5034959;28;20040;-61
2023/04/16 00:26:12;;;;;;;14.88;6.00;;;11.90;73.20;;;;;;5038127;28;20168;-62
2023/04/16 00:28:41;;;;;;;11.60;4.85;;;11.90;73.20;;;;;;5035002;28;20021;-61
2023/04/16 00:31:07;;;;;;;14.23;5.55;;;11.90;73.20;;;;;;5036581;28;20036;-62
2023/04/16 00:33:32;;;;;;;13.55;5.28;;;11.90;73.30;;;;;;5033033;28;20091;-61
2023/04/16 00:35:59;;;;;;;13.75;5.50;;;11.90;73.40;;;;;;5036738;28;20454;-61
2023/04/16 00:38:29;;;;;;;13.10;4.90;;;11.90;73.50;;;;;;5038740;28;20105;-61
2023/04/16 00:40:57;;;;;;;14.93;5.68;;;11.90;73.50;;;;;;5036185;28;20224;-61
2023/04/16 00:43:24;;;;;;;16.45;6.28;;;11.90;73.60;;;;;;5033327;28;20100;-61
2023/04/16 00:45:54;;;;;;;12.32;5.43;;;11.90;73.80;;;;;;5035728;28;21329;-61
2023/04/16 00:48:20;;;;;;;17.70;5.65;;;11.90;73.80;;;;;;5015782;28;20033;-61
2023/04/16 00:50:47;;;;;;;15.68;5.60;;;11.90;73.90;;;;;;5036447;28;20401;-61
2023/04/16 00:53:14;;;;;;;13.85;6.07;;;11.90;73.90;;;;;;5033094;28;20109;-61
2023/04/16 00:55:39;;;;;;;13.35;5.72;;;11.90;74.00;;;;;;5034971;28;20383;-61
2023/04/16 00:58:05;;;;;;;16.52;5.80;;;11.90;74.10;;;;;;5034767;28;20017;-61
2023/04/16 01:00:31;;;;;;;17.73;5.95;;;11.90;74.20;;;;;;5035388;28;20017;-61
2023/04/16 01:02:59;;;;;;;13.88;5.43;;;11.90;74.30;;;;;;5030940;28;20339;-61
2023/04/16 01:05:25;;;;;;;16.25;5.78;;;11.90;74.40;;;;;;5030422;28;20152;-61
2023/04/16 01:07:51;;;;;;;14.38;5.90;;;11.90;74.40;;;;;;5031842;28;20355;-61
2023/04/16 01:10:17;;;;;;;14.57;6.43;;;11.90;74.50;;;;;;5035330;28;20127;-61
2023/04/16 01:12:43;;;;;;;15.23;6.38;;;11.90;74.50;;;;;;5033756;28;20116;-61
2023/04/16 01:15:10;;;;;;;15.80;6.07;;;11.90;74.60;;;;;;5032382;28;20025;-61
2023/04/16 01:17:35;;;;;;;15.60;6.30;;;11.90;74.60;;;;;;5031461;28;20082;-62
2023/04/16 01:20:01;;;;;;;15.05;6.93;;;11.90;74.70;;;;;;5035963;28;20112;-61
2023/04/16 01:22:28;;;;;;;16.65;6.82;;;11.90;74.80;;;;;;5033472;28;20053;-62
2023/04/16 01:24:53;;;;;;;17.63;6.80;;;11.90;74.90;;;;;;5034363;28;20032;-62
2023/04/16 01:27:19;;;;;;;17.98;7.78;;;11.90;74.90;;;;;;5032809;28;20029;-61
2023/04/16 01:29:45;;;;;;;14.45;6.35;;;11.90;74.90;;;;;;5033875;28;20026;-62
2023/04/16 01:32:11;;;;;;;15.70;6.15;;;11.90;74.90;;;;;;5035629;28;20022;-62
2023/04/16 01:34:39;;;;;;;18.20;6.32;;;11.90;75.00;;;;;;5032750;28;20212;-61
2023/04/16 01:37:05;;;;;;;16.48;6.55;;;11.90;75.10;;;;;;5032031;28;20460;-61
2023/04/16 01:39:31;;;;;;;19.55;7.65;;;11.80;75.10;;;;;;5033263;28;20029;-61
2023/04/16 01:41:57;;;;;;;13.35;6.85;;;11.80;75.20;;;;;;5032975;28;20076;-61
2023/04/16 01:44:24;;;;;;;23.48;8.07;;;11.90;75.20;;;;;;5030588;28;20115;-61
2023/04/16 01:46:50;;;;;;;18.63;7.18;;;11.90;75.20;;;;;;5031480;28;20032;-61
2023/04/16 01:49:16;;;;;;;20.33;7.72;;;11.90;75.30;;;;;;5032749;28;20285;-61
2023/04/16 01:51:41;;;;;;;18.50;8.05;;;11.90;75.30;;;;;;5037003;28;20028;-61
2023/04/16 01:54:08;;;;;;;16.13;8.07;;;11.90;75.30;;;;;;5034974;28;20045;-61
2023/04/16 01:56:34;;;;;;;17.45;7.57;;;11.90;75.40;;;;;;5031538;28;20022;-61
2023/04/16 01:58:59;;;;;;;18.15;7.45;;;11.90;75.40;;;;;;5034460;28;20116;-60
2023/04/16 02:01:31;;;;;;;17.65;6.50;;;11.90;75.40;;;;;;5033322;28;20025;-60
2023/04/16 02:03:57;;;;;;;18.48;7.95;;;11.90;75.40;;;;;;5034451;28;20017;-60
2023/04/16 02:06:23;;;;;;;19.08;7.60;;;11.90;75.40;;;;;;5031426;28;20024;-61
2023/04/16 02:08:48;;;;;;;15.60;7.25;;;11.90;75.50;;;;;;5033285;28;20017;-61
2023/04/16 02:11:14;;;;;;;20.13;8.50;;;11.90;75.50;;;;;;5033360;28;20033;-61
2023/04/16 02:13:41;;;;;;;19.75;8.50;;;11.90;75.50;;;;;;5016309;28;20037;-61
2023/04/16 02:16:07;;;;;;;17.42;7.95;;;11.90;75.60;;;;;;5030293;28;20040;-61
2023/04/16 02:18:41;;;;;;;20.30;8.23;;;11.90;75.60;;;;;;5031705;28;20029;-61
2023/04/16 02:21:07;;;;;;;19.77;8.80;;;11.90;75.60;;;;;;5030867;28;20337;-61
2023/04/16 02:23:33;;;;;;;20.58;9.18;;;11.90;75.70;;;;;;5030233;28;20021;-61
2023/04/16 02:25:59;;;;;;;21.05;9.82;;;11.90;75.70;;;;;;5030675;28;20438;-62
2023/04/16 02:28:26;;;;;;;19.63;8.15;;;11.90;75.80;;;;;;5030298;28;20088;-61
2023/04/16 02:30:51;;;;;;;20.92;9.13;;;11.90;75.80;;;;;;5032962;28;20451;-61
2023/04/16 02:33:19;;;;;;;18.80;8.98;;;11.90;75.80;;;;;;5032206;28;20044;-61
2023/04/16 02:35:56;;;;;;;19.00;9.38;;;11.90;75.90;;;;;;5033465;28;20029;-61
2023/04/16 02:38:22;;;;;;;18.80;8.98;;;11.90;76.00;;;;;;5029711;28;20041;-61
2023/04/16 02:40:48;;;;;;;19.15;8.65;;;11.80;76.00;;;;;;5032846;28;20022;-61
2023/04/16 02:43:15;;;;;;;18.85;8.63;;;11.90;76.00;;;;;;5032738;28;20073;-61
2023/04/16 02:45:41;;;;;;;18.35;8.75;;;11.90;76.00;;;;;;5032353;28;20068;-61
2023/04/16 02:48:08;;;;;;;19.65;9.52;;;11.90;76.10;;;;;;5030259;28;20090;-61
2023/04/16 02:50:34;;;;;;;23.75;10.23;;;11.90;76.10;;;;;;5015451;28;20021;-61
2023/04/16 02:52:59;;;;;;;19.50;9.95;;;11.90;76.10;;;;;;5014828;28;20026;-61
2023/04/16 02:55:25;;;;;;;20.98;9.25;;;11.90;76.10;;;;;;5031572;28;20339;-61
2023/04/16 02:57:51;;;;;;;21.20;8.90;;;11.90;76.10;;;;;;5030561;28;20394;-61
2023/04/16 03:00:18;;;;;;;25.00;10.77;;;11.90;76.10;;;;;;5031887;28;20482;-60
2023/04/16 03:02:43;;;;;;;18.95;9.88;;;11.90;76.10;;;;;;5031210;28;20443;-61
2023/04/16 03:05:11;;;;;;;21.33;10.55;;;11.90;76.10;;;;;;5032777;28;20021;-61
2023/04/16 03:07:38;;;;;;;24.85;10.57;;;11.90;76.20;;;;;;5032797;28;20060;-61
2023/04/16 03:10:05;;;;;;;20.60;10.40;;;11.90;76.30;;;;;;5031411;28;20037;-61
2023/04/16 03:12:30;;;;;;;20.40;10.25;;;11.80;76.20;;;;;;5031781;28;20466;-61
2023/04/16 03:14:56;;;;;;;22.90;10.18;;;11.80;76.20;;;;;;5031081;28;20430;-61
2023/04/16 03:17:22;;;;;;;22.00;10.30;;;11.80;76.30;;;;;;5033786;28;20025;-61
2023/04/16 03:19:49;;;;;;;23.98;11.55;;;11.80;76.40;;;;;;5028873;28;20025;-62
2023/04/16 03:22:15;;;;;;;24.65;11.52;;;11.80;76.40;;;;;;5033432;28;20091;-61
2023/04/16 03:24:41;;;;;;;21.80;11.25;;;11.80;76.40;;;;;;5030188;28;20022;-61
2023/04/16 03:27:07;;;;;;;21.38;10.88;;;11.80;76.40;;;;;;5033872;28;20492;-61
2023/04/16 03:29:36;;;;;;;21.13;10.57;;;11.80;76.40;;;;;;5028840;28;20496;-61
2023/04/16 03:32:02;;;;;;;20.58;11.20;;;11.80;76.50;;;;;;5032386;28;20415;-61
2023/04/16 03:34:28;;;;;;;20.42;10.95;;;11.80;76.40;;;;;;5016288;28;20291;-61
2023/04/16 03:36:53;;;;;;;22.10;11.52;;;11.80;76.40;;;;;;5032995;28;20018;-61
2023/04/16 03:39:19;;;;;;;18.60;10.60;;;11.80;76.50;;;;;;5033676;28;20493;-61
2023/04/16 03:41:45;;;;;;;23.63;10.63;;;11.80;76.50;;;;;;5034035;28;20029;-62
2023/04/16 03:44:11;;;;;;;22.90;11.15;;;11.80;76.40;;;;;;5030545;28;20032;-61
2023/04/16 03:46:37;;;;;;;23.10;11.45;;;11.80;76.50;;;;;;5035714;28;20083;-61
2023/04/16 03:49:03;;;;;;;22.10;11.45;;;11.80;76.50;;;;;;5027987;28;20378;-61
2023/04/16 03:51:28;;;;;;;22.30;10.90;;;11.80;76.60;;;;;;5037819;28;20047;-62
2023/04/16 03:53:55;;;;;;;24.60;11.70;;;11.80;76.60;;;;;;5034688;28;20485;-62
2023/04/16 03:56:21;;;;;;;22.60;11.45;;;11.90;76.70;;;;;;5037573;28;20034;-62
2023/04/16 03:58:49;;;;;;;20.88;11.80;;;11.90;76.70;;;;;;5035216;28;21292;-61
2023/04/16 04:01:15;;;;;;;20.10;10.98;;;11.80;76.70;;;;;;5025041;28;20057;-61
2023/04/16 04:03:41;;;;;;;21.13;11.20;;;11.80;76.70;;;;;;5030503;28;20356;-61
2023/04/16 04:06:07;;;;;;;23.50;11.48;;;11.80;76.70;;;;;;5012283;28;20025;-61
2023/04/16 04:08:33;;;;;;;23.40;11.90;;;11.80;76.70;;;;;;5030416;28;20109;-61
2023/04/16 04:10:59;;;;;;;21.60;11.18;;;11.80;76.80;;;;;;5028293;28;20175;-61
2023/04/16 04:13:26;;;;;;;23.17;11.52;;;11.80;76.80;;;;;;5029137;28;20037;-61
2023/04/16 04:15:52;;;;;;;23.35;11.50;;;11.80;76.80;;;;;;5041544;28;20099;-61
2023/04/16 04:18:19;;;;;;;21.73;11.23;;;11.80;76.80;;;;;;5029989;28;20022;-62
2023/04/16 04:20:45;;;;;;;25.50;11.88;;;11.80;76.90;;;;;;5030518;28;20053;-61
2023/04/16 04:23:14;;;;;;;22.90;12.00;;;11.80;76.90;;;;;;5027684;28;20025;-61
2023/04/16 04:25:40;;;;;;;24.40;12.60;;;11.80;76.90;;;;;;5026739;28;20018;-61
2023/04/16 04:28:06;;;;;;;23.98;12.98;;;11.80;76.90;;;;;;5028026;28;20122;-61
2023/04/16 04:30:34;;;;;;;23.52;12.55;;;11.80;76.90;;;;;;5027025;28;20025;-61
2023/04/16 04:33:00;;;;;;;27.00;13.32;;;11.80;76.90;;;;;;5031336;28;20358;-62
2023/04/16 04:35:26;;;;;;;27.67;13.07;;;11.80;76.90;;;;;;5027533;28;20028;-61
2023/04/16 04:37:52;;;;;;;24.83;12.95;;;11.80;77.00;;;;;;5027130;28;20029;-62
2023/04/16 04:40:19;;;;;;;24.08;11.95;;;11.80;77.00;;;;;;5026988;28;20115;-61
2023/04/16 04:42:45;;;;;;;22.42;11.40;;;11.80;77.10;;;;;;5025218;28;20021;-61
2023/04/16 04:45:11;;;;;;;24.65;12.02;;;11.80;77.10;;;;;;5027556;28;20021;-62
2023/04/16 04:47:37;;;;;;;24.65;12.13;;;11.80;77.20;;;;;;5044164;28;20022;-61
2023/04/16 04:50:03;;;;;;;23.40;12.30;;;11.80;77.20;;;;;;5007549;28;20029;-61
2023/04/16 04:52:30;;;;;;;27.33;12.95;;;11.80;77.20;;;;;;5030978;28;20466;-61
2023/04/16 04:54:56;;;;;;;23.38;12.27;;;11.80;77.20;;;;;;5015301;28;20025;-62
2023/04/16 04:57:22;;;;;;;24.17;12.48;;;11.80;77.20;;;;;;5029704;28;20024;-61
2023/04/16 04:59:50;;;;;;;24.15;11.35;;;11.80;77.30;;;;;;5014669;28;20082;-62
2023/04/16 05:02:16;;;;;;;20.00;10.50;;;11.80;77.30;;;;;;5033164;28;20033;-62
2023/04/16 05:04:42;;;;;;;27.92;13.02;;;11.80;77.40;;;;;;5017943;28;20067;-61
2023/04/16 05:07:07;;;;;;;23.48;12.23;;;11.80;77.40;;;;;;5034702;28;20105;-61
2023/04/16 05:09:33;;;;;;;22.73;12.40;;;11.80;77.40;;;;;;5035506;28;20046;-61
2023/04/16 05:11:59;;;;;;;25.52;11.73;;;11.80;77.50;;;;;;5034387;28;20029;-61
2023/04/16 05:14:24;;;;;;;22.67;12.25;;;11.80;77.40;;;;;;5032835;28;20048;-61
2023/04/16 05:16:50;;;;;;;24.92;12.40;;;11.80;77.40;;;;;;5034069;28;20060;-61
2023/04/16 05:19:16;;;;;;;25.38;13.65;;;11.80;77.40;;;;;;5055686;28;20047;-62
2023/04/16 05:21:42;;;;;;;27.73;13.30;;;11.80;77.40;;;;;;5048042;28;20047;-62
2023/04/16 05:24:07;;;;;;;24.92;13.10;;;11.80;77.40;;;;;;5043679;28;20072;-63
2023/04/16 05:26:33;;;;;;;25.15;11.93;;;11.80;77.40;;;;;;5039835;28;20040;-63
2023/04/16 05:28:59;;;;;;;28.52;14.52;;;11.80;77.40;;;;;;5026979;28;20030;-63
2023/04/16 05:31:25;;;;;;;28.50;13.73;;;11.80;77.50;;;;;;5043120;28;20120;-63
2023/04/16 05:33:51;;;;;;;26.35;13.90;;;11.80;77.40;;;;;;5044361;28;20104;-62
2023/04/16 05:36:16;;;;;;;25.75;12.43;;;11.90;77.50;;;;;;5052458;28;20025;-63
2023/04/16 05:38:42;;;;;;;25.27;13.23;;;11.90;77.50;;;;;;5053873;28;20091;-63
2023/04/16 05:41:08;;;;;;;24.35;13.38;;;11.80;77.50;;;;;;5039645;28;20426;-63
2023/04/16 05:43:33;;;;;;;27.20;14.23;;;11.80;77.50;;;;;;5040593;28;20025;-63
2023/04/16 05:45:59;;;;;;;25.63;13.88;;;11.80;77.60;;;;;;5033617;28;20021;-63
2023/04/16 05:48:25;;;;;;;27.88;13.23;;;11.90;77.70;;;;;;5041075;28;20112;-63
2023/04/16 05:50:51;;;;;;;24.27;13.23;;;11.80;77.60;;;;;;5050014;28;20454;-63
2023/04/16 05:53:17;;;;;;;26.10;13.43;;;11.90;77.70;;;;;;5052340;28;20063;-63
2023/04/16 05:55:44;;;;;;;30.85;14.32;;;11.90;77.70;;;;;;5047139;28;20028;-63
2023/04/16 05:58:09;;;;;;;26.55;13.80;;;11.90;77.70;;;;;;5054759;28;20457;-63
2023/04/16 06:00:35;;;;;;;22.42;12.70;;;11.90;77.70;;;;;;5051484;28;20437;-62
2023/04/16 06:03:02;;;;;;;27.05;13.40;;;11.90;77.70;;;;;;5030384;28;20026;-62
2023/04/16 06:05:29;;;;;;;22.00;12.35;;;11.90;77.60;;;;;;5015986;28;20022;-62
2023/04/16 06:07:55;;;;;;;23.17;12.43;;;11.90;77.60;;;;;;5032322;28;20033;-63
2023/04/16 06:10:21;;;;;;;26.02;12.95;;;12.00;77.60;;;;;;5028095;28;20056;-63
2023/04/16 06:12:47;;;;;;;26.02;12.73;;;12.00;78.10;;;;;;5032261;28;20017;-61
2023/04/16 06:15:13;;;;;;;24.08;12.65;;;12.00;77.30;;;;;;5032248;28;20100;-63
2023/04/16 06:17:39;;;;;;;24.63;12.57;;;12.00;77.30;;;;;;5030429;28;20026;-63
2023/04/16 06:20:05;;;;;;;24.35;12.77;;;12.10;77.20;;;;;;5032437;28;20021;-62
2023/04/16 06:22:31;;;;;;;21.77;11.85;;;12.10;77.10;;;;;;5031532;28;20046;-63
2023/04/16 06:24:57;;;;;;;21.48;11.57;;;12.10;77.10;;;;;;5020256;28;20350;-63
2023/04/16 06:27:22;;;;;;;22.60;12.15;;;12.10;77.00;;;;;;5043378;28;20021;-63
2023/04/16 06:29:48;;;;;;;22.25;12.20;;;12.20;77.00;;;;;;5031418;28;20097;-63
2023/04/16 06:32:16;;;;;;;22.50;12.52;;;12.20;76.90;;;;;;5047220;28;20434;-63
2023/04/16 06:34:41;;;;;;;25.92;12.23;;;12.20;76.90;;;;;;5054213;28;20083;-63
2023/04/16 06:37:07;;;;;;;23.15;11.30;;;12.20;76.80;;;;;;5045735;28;20422;-63
2023/04/16 06:39:33;;;;;;;20.00;11.65;;;12.20;76.80;;;;;;5042950;28;20063;-64
2023/04/16 06:41:58;;;;;;;21.83;11.63;;;12.20;76.80;;;;;;5030437;28;20099;-64
2023/04/16 06:44:24;;;;;;;20.77;11.45;;;12.20;76.70;;;;;;5033788;28;20270;-63
2023/04/16 06:46:50;;;;;;;22.77;11.25;;;12.20;76.70;;;;;;5036903;28;20029;-63
2023/04/16 06:49:16;;;;;;;21.60;11.80;;;12.20;76.60;;;;;;5039210;28;20087;-63
2023/04/16 06:51:41;;;;;;;20.88;12.57;;;12.20;76.60;;;;;;5038295;28;20036;-63
2023/04/16 06:54:07;;;;;;;20.02;11.68;;;12.20;76.60;;;;;;5054310;28;20021;-63
2023/04/16 06:56:34;;;;;;;21.38;11.98;;;12.30;76.60;;;;;;5041074;28;20025;-63
2023/04/16 06:59:00;;;;;;;18.95;11.10;;;12.30;76.60;;;;;;5029611;28;20104;-63
2023/04/16 07:01:27;;;;;;;19.80;11.20;;;12.30;76.50;;;;;;5035480;28;20124;-63
2023/04/16 07:03:53;;;;;;;19.23;11.35;;;12.30;76.50;;;;;;5050596;28;20017;-63
2023/04/16 07:06:19;;;;;;;22.52;11.68;;;12.40;76.50;;;;;;5040672;28;20029;-63
2023/04/16 07:08:45;;;;;;;18.58;11.20;;;12.40;76.40;;;;;;5033882;28;20029;-63
2023/04/16 07:11:11;;;;;;;20.65;11.85;;;12.40;76.40;;;;;;5038825;28;20037;-63
2023/04/16 07:13:36;;;;;;;21.60;12.02;;;12.40;76.30;;;;;;5057693;28;20074;-63
2023/04/16 07:16:02;;;;;;;20.45;11.90;;;12.40;76.30;;;;;;5049077;28;20866;-63
2023/04/16 07:18:28;;;;;;;21.42;12.05;;;12.40;76.30;;;;;;5036359;28;20033;-62
2023/04/16 07:20:53;;;;;;;21.60;12.18;;;12.40;76.20;;;;;;5033885;28;20034;-63
2023/04/16 07:23:19;;;;;;;19.17;11.10;;;12.40;76.20;;;;;;5043222;28;20071;-63
2023/04/16 07:25:45;;;;;;;21.17;12.02;;;12.50;76.10;;;;;;5026671;28;20083;-63
2023/04/16 07:28:11;;;;;;;22.02;12.02;;;12.50;76.00;;;;;;5022254;28;20106;-62
2023/04/16 07:30:36;;;;;;;19.50;11.60;;;12.50;76.00;;;;;;5020055;28;20029;-62
2023/04/16 07:33:03;;;;;;;16.17;10.68;;;12.50;76.00;;;;;;5037603;28;20581;-63
2023/04/16 07:35:29;;;;;;;20.30;11.30;;;12.50;75.90;;;;;;5016252;28;20367;-63
2023/04/16 07:37:55;;;;;;;18.55;10.43;;;12.50;75.80;;;;;;5025291;28;20354;-62
2023/04/16 07:40:23;;;;;;;20.38;11.50;;;12.50;75.70;;;;;;5021595;28;20078;-63
2023/04/16 07:42:49;;;;;;;20.52;12.32;;;12.60;75.80;;;;;;5024876;28;20018;-63
2023/04/16 07:45:16;;;;;;;20.83;12.18;;;12.60;75.70;;;;;;5018818;28;20157;-63
2023/04/16 07:47:42;;;;;;;18.58;11.50;;;12.60;75.70;;;;;;5019342;28;20049;-63
2023/04/16 07:50:08;;;;;;;19.85;11.85;;;12.70;75.60;;;;;;5007743;28;20505;-63
2023/04/16 07:52:34;;;;;;;21.17;12.13;;;12.70;75.40;;;;;;5019895;28;20128;-63
2023/04/16 07:54:59;;;;;;;21.60;11.20;;;12.70;75.30;;;;;;5041458;28;20113;-63
2023/04/16 07:57:25;;;;;;;18.70;11.27;;;12.70;75.10;;;;;;5022043;28;20034;-63
2023/04/16 07:59:51;;;;;;;18.52;11.02;;;12.80;75.20;;;;;;5033810;28;20075;-63
2023/04/16 08:02:17;;;;;;;20.42;11.30;;;12.80;75.10;;;;;;5054315;28;20311;-62
2023/04/16 08:04:43;;;;;;;19.13;11.48;;;12.80;75.00;;;;;;5053328;28;20025;-63
2023/04/16 08:07:09;;;;;;;19.08;11.77;;;12.80;74.90;;;;;;5044522;28;20361;-63
2023/04/16 08:09:35;;;;;;;20.63;11.60;;;12.90;74.90;;;;;;5036158;28;20045;-63
2023/04/16 08:12:01;;;;;;;20.38;12.23;;;12.90;74.90;;;;;;5056895;28;20029;-63
2023/04/16 08:14:27;;;;;;;18.85;11.68;;;12.90;74.80;;;;;;5049875;28;20033;-63
2023/04/16 08:16:53;;;;;;;21.00;12.25;;;12.90;74.70;;;;;;5056959;28;20029;-63
2023/04/16 08:19:19;;;;;;;19.45;12.05;;;13.00;74.70;;;;;;5038743;28;20037;-63
2023/04/16 08:21:45;;;;;;;20.80;11.75;;;13.00;74.70;;;;;;5052124;28;20363;-63
2023/04/16 08:24:11;;;;;;;18.88;12.25;;;13.00;74.60;;;;;;5039943;28;20398;-63
2023/04/16 08:26:37;;;;;;;20.13;11.98;;;13.00;74.60;;;;;;5056368;28;20025;-63
2023/04/16 08:29:03;;;;;;;20.30;11.60;;;13.00;74.50;;;;;;5042596;28;20025;-62
2023/04/16 08:31:29;;;;;;;24.55;13.00;;;13.00;74.50;;;;;;5046105;28;20024;-63
2023/04/16 08:33:54;;;;;;;19.48;12.32;;;13.00;74.50;;;;;;5043052;28;20254;-63
2023/04/16 08:36:20;;;;;;;22.25;11.57;;;13.00;74.50;;;;;;5053335;28;20087;-63
2023/04/16 08:38:46;;;;;;;21.25;12.65;;;13.10;74.50;;;;;;5045811;28;20037;-63
2023/04/16 08:41:12;;;;;;;24.05;13.32;;;13.10;74.40;;;;;;5031592;28;20038;-63
2023/04/16 08:43:43;;;;;;;22.00;12.95;;;13.10;74.30;;;;;;5033024;28;20446;-62
2023/04/16 08:46:13;;;;;;;21.42;12.90;;;13.10;74.30;;;;;;5051072;28;20029;-63
2023/04/16 08:48:42;;;;;;;23.58;13.27;;;13.20;74.30;;;;;;5048354;28;20439;-63
2023/04/16 08:51:09;;;;;;;22.02;13.25;;;13.30;74.20;;;;;;5035172;28;20060;-63
2023/04/16 08:53:42;;;;;;;28.90;15.10;;;13.30;74.20;;;;;;5035780;28;20037;-63
2023/04/16 08:56:10;;;;;;;23.30;14.50;;;13.30;74.10;;;;;;5046353;28;20052;-63
2023/04/16 08:58:37;;;;;;;24.02;13.82;;;13.30;74.10;;;;;;5052577;28;20029;-63
2023/04/16 09:01:04;;;;;;;25.15;14.13;;;13.30;74.00;;;;;;5043611;28;20216;-63
2023/04/16 09:03:33;;;;;;;24.20;13.73;;;13.30;73.90;;;;;;5043846;28;20033;-63
2023/04/16 09:06:00;;;;;;;22.17;13.02;;;13.40;73.90;;;;;;5056042;28;20446;-63
2023/04/16 09:08:25;;;;;;;28.40;14.77;;;13.40;73.80;;;;;;5052606;28;20041;-63
2023/04/16 09:10:52;;;;;;;27.98;13.95;;;13.40;73.80;;;;;;5040888;28;20048;-62
2023/04/16 09:13:19;;;;;;;25.92;15.05;;;13.40;73.60;;;;;;5045669;28;20108;-62
2023/04/16 09:15:46;;;;;;;23.83;13.98;;;13.40;73.50;;;;;;5039053;28;20037;-63
2023/04/16 09:18:11;;;;;;;25.85;14.68;;;13.50;73.50;;;;;;5055512;28;20370;-63
2023/04/16 09:20:38;;;;;;;27.83;14.45;;;13.50;73.30;;;;;;5037771;28;20056;-63
2023/04/16 09:23:04;;;;;;;28.77;15.13;;;13.50;73.20;;;;;;5038751;28;20026;-63
2023/04/16 09:25:33;;;;;;;23.95;14.57;;;13.60;73.20;;;;;;5049756;28;20021;-63
2023/04/16 09:28:00;;;;;;;24.90;15.80;;;13.60;73.10;;;;;;5054450;28;20059;-63
2023/04/16 09:30:27;;;;;;;28.80;15.27;;;13.50;73.00;;;;;;5039467;28;20063;-63
2023/04/16 09:33:11;;;;;;;27.30;16.10;;;13.50;73.00;;;;;;5048227;28;20409;-63
2023/04/16 09:35:48;;;;;;;26.35;14.95;;;13.60;73.10;;;;;;5051122;28;20025;-63
2023/04/16 09:38:14;;;;;;;28.13;16.25;;;13.60;73.10;;;;;;5027528;28;20055;-63
2023/04/16 09:40:40;;;;;;;27.52;16.80;;;13.60;73.00;;;;;;5047667;28;20481;-63
2023/04/16 09:43:15;;;;;;;28.25;15.32;;;13.70;72.90;;;;;;5044684;28;20405;-63
2023/04/16 09:45:49;;;;;;;25.33;14.57;;;13.80;72.70;;;;;;5047807;28;20071;-63
2023/04/16 09:48:15;;;;;;;28.17;16.05;;;13.90;72.50;;;;;;5037550;28;20040;-63
2023/04/16 09:50:50;;;;;;;27.25;15.93;;;14.00;72.30;;;;;;5047743;28;20446;-63
2023/04/16 09:53:24;;;;;;;26.75;15.32;;;14.10;72.10;;;;;;5048774;28;20032;-63
2023/04/16 09:55:50;;;;;;;25.92;15.52;;;14.10;72.00;;;;;;5043875;28;20044;-63
2023/04/16 09:58:19;;;;;;;26.30;15.48;;;14.30;71.80;;;;;;5054981;28;20033;-63
2023/04/16 10:00:45;;;;;;;24.17;14.02;;;14.40;71.50;;;;;;5042404;28;20067;-64
2023/04/16 10:03:11;;;;;;;29.08;15.27;;;14.60;71.20;;;;;;5045646;28;20037;-63
2023/04/16 10:05:36;;;;;;;27.65;16.00;;;14.60;70.90;;;;;;5038079;28;20025;-63
2023/04/16 10:08:10;;;;;;;26.25;15.02;;;14.60;70.90;;;;;;5054056;28;20383;-64
2023/04/16 10:10:37;;;;;;;28.67;15.20;;;14.70;70.70;;;;;;5042153;28;20037;-64
2023/04/16 10:13:03;;;;;;;25.25;14.18;;;14.80;70.40;;;;;;5054821;28;20044;-64
2023/04/16 10:15:29;;;;;;;26.73;14.68;;;14.90;70.20;;;;;;5035088;28;20042;-64
2023/04/16 10:17:56;;;;;;;27.20;15.40;;;14.90;70.00;;;;;;5054363;28;20033;-64
2023/04/16 10:20:23;;;;;;;24.08;14.10;;;15.00;69.80;;;;;;5041850;28;20030;-63
2023/04/16 10:22:49;;;;;;;21.05;13.43;;;15.10;69.60;;;;;;5042099;28;20040;-64
2023/04/16 10:25:16;;;;;;;23.30;13.40;;;15.10;69.40;;;;;;5038599;28;20362;-63
2023/04/16 10:27:43;;;;;;;25.50;15.02;;;15.20;69.20;;;;;;5031986;28;20022;-65
2023/04/16 10:30:10;;;;;;;20.98;13.65;;;15.40;68.90;;;;;;5041008;28;20044;-64
2023/04/16 10:32:37;;;;;;;25.63;14.10;;;15.70;68.40;;;;;;5026667;28;20025;-64
2023/04/16 10:35:03;;;;;;;20.83;12.82;;;15.80;67.70;;;;;;5043285;28;20022;-64
2023/04/16 10:37:30;;;;;;;25.13;14.07;;;15.90;67.60;;;;;;5037090;28;20031;-64
2023/04/16 10:40:01;;;;;;;24.90;14.45;;;15.80;67.50;;;;;;5054078;28;20033;-64
2023/04/16 10:42:26;;;;;;;24.42;13.82;;;15.70;67.60;;;;;;5044655;28;20339;-64
2023/04/16 10:44:52;;;;;;;21.90;12.85;;;15.60;68.30;;;;;;5045455;28;20036;-63
2023/04/16 10:47:18;;;;;;;24.52;14.10;;;15.60;67.70;;;;;;5034968;28;20103;-64
2023/04/16 10:49:47;;;;;;;24.52;14.00;;;15.60;67.70;;;;;;5047942;28;20021;-64
2023/04/16 10:52:15;;;;;;;25.02;13.27;;;15.60;67.60;;;;;;5048452;28;20041;-64
2023/04/16 10:54:41;;;;;;;25.05;13.30;;;15.60;67.60;;;;;;5045695;28;20024;-64
2023/04/16 10:57:09;;;;;;;23.60;13.90;;;15.50;67.60;;;;;;5029750;28;20059;-64
2023/04/16 10:59:36;;;;;;;24.70;13.65;;;15.50;67.60;;;;;;5034573;28;20029;-64
2023/04/16 11:02:08;;;;;;;23.42;13.77;;;15.50;67.60;;;;;;5054144;28;20108;-63
2023/04/16 11:04:34;;;;;;;;;;;15.60;67.50;;;;;;5047742;28;20029;-64
2023/04/16 11:07:09;;;;;;;19.88;12.25;;;15.60;67.40;;;;;;5040977;28;20038;-64
2023/04/16 11:10:01;;;;;;;23.35;12.32;;;15.80;67.10;;;;;;5043258;28;20037;-64
2023/04/16 11:12:53;;;;;;;22.45;12.02;;;16.00;66.70;;;;;;5043461;28;20373;-63
2023/04/16 11:15:18;;;;;;;21.17;13.40;;;16.00;66.40;;;;;;5039817;28;20052;-64
2023/04/16 11:17:53;;;;;;;22.85;13.27;;;16.00;66.20;;;;;;5034720;28;20311;-64
2023/04/16 11:20:24;;;;;;;17.38;11.82;;;16.10;66.00;;;;;;5038702;28;20033;-64
2023/04/16 11:22:52;;;;;;;21.52;12.98;;;16.20;65.80;;;;;;5032136;28;20037;-65
2023/04/16 11:25:25;;;;;;;20.70;11.80;;;16.30;65.50;;;;;;5018606;28;20354;-62
2023/04/16 11:27:52;;;;;;;18.52;12.00;;;16.40;65.20;;;;;;5027561;28;20060;-63
2023/04/16 11:30:27;;;;;;;20.15;11.57;;;16.40;65.20;;;;;;5032261;28;20041;-63
2023/04/16 11:32:53;;;;;;;20.45;12.93;;;16.40;65.20;;;;;;5016179;28;20021;-63
2023/04/16 11:35:19;;;;;;;21.40;12.35;;;16.40;65.30;;;;;;5032562;28;20078;-63
2023/04/16 11:37:47;;;;;;;19.85;12.35;;;16.30;65.80;;;;;;5034163;28;20029;-63
2023/04/16 11:40:13;;;;;;;19.33;11.98;;;16.30;65.00;;;;;;5034807;28;20036;-63
2023/04/16 11:42:40;;;;;;;18.27;12.02;;;16.30;65.00;;;;;;5047283;28;20041;-63
2023/04/16 11:45:08;;;;;;;19.42;11.32;;;16.30;65.00;;;;;;5044965;28;20024;-63
2023/04/16 11:47:43;;;;;;;21.05;12.25;;;16.30;64.90;;;;;;5039465;28;20156;-63
2023/04/16 11:50:23;;;;;;;21.40;11.48;;;16.30;64.80;;;;;;5036035;28;20029;-63
2023/04/16 11:52:50;;;;;;;22.83;13.15;;;16.30;64.80;;;;;;5033538;28;20488;-63
2023/04/16 11:55:17;;;;;;;23.10;13.02;;;16.30;64.70;;;;;;5025614;28;20029;-63
2023/04/16 11:57:44;;;;;;;19.42;12.55;;;16.20;64.70;;;;;;5034318;28;20028;-64
2023/04/16 12:00:12;;;;;;;24.08;12.77;;;16.20;64.70;;;;;;5042865;28;20037;-63
2023/04/16 12:02:52;;;;;;;19.60;11.98;;;16.20;64.70;;;;;;5048517;28;20033;-63
2023/04/16 12:05:32;;;;;;;19.27;11.75;;;16.20;64.60;;;;;;5054518;28;20342;-63
2023/04/16 12:08:03;;;;;;;21.35;11.55;;;16.20;64.60;;;;;;5025900;28;20347;-63
2023/04/16 12:10:33;;;;;;;19.02;10.68;;;16.20;64.60;;;;;;5052525;28;20127;-63
2023/04/16 12:13:13;;;;;;;19.23;11.30;;;16.30;64.60;;;;;;5044014;28;20024;-63
2023/04/16 12:15:50;;;;;;;21.50;11.60;;;16.30;64.40;;;;;;5047775;28;20450;-63
2023/04/16 12:18:18;;;;;;;22.40;11.98;;;16.40;64.10;;;;;;5025932;28;20021;-63
2023/04/16 12:20:45;;;;;;;19.83;11.35;;;16.50;64.10;;;;;;5047956;28;20064;-63
2023/04/16 12:23:32;;;;;;;18.80;11.10;;;16.50;64.00;;;;;;5045458;28;20450;-63
2023/04/16 12:26:09;;;;;;;17.88;11.30;;;16.60;63.90;;;;;;5051092;28;20052;-63
2023/04/16 12:28:37;;;;;;;20.20;11.70;;;16.50;64.00;;;;;;5045312;28;20037;-63
2023/04/16 12:31:03;;;;;;;17.52;10.15;;;16.50;64.00;;;;;;5053624;28;20536;-63